Terminal Aerodrome Forecast
Issued by NWS

Home | Current Version | Previous Version | Text Only | Print | Product List | Glossary On
Versions: 1 2 3 4 5 6 7 8 9 10 11 12 13 14 15 16 17 18 19 20 21 22 23 24 25 26
000
FTUS44 KHGX 300904 AAA
TAFIAH
TAF AMD
KIAH 300904Z 3009/3112 00000KT P6SM SCT250
     FM301000 17004KT P6SM FEW015 SCT150
     FM301400 14005KT P6SM BKN025 BKN150
     FM301700 15007KT P6SM SCT035 BKN150
     FM302200 14008KT P6SM SCT045 SCT150
     FM310200 15005KT P6SM SCT250
     FM310600 VRB04KT P6SM FEW015 SCT250=

USA.gov is the U.S. government's official web portal to all federal, state and local government web resources and services.